createdAt,value
2023-03-14T00:01:09.643Z,7.73
2023-03-14T00:03:36.358Z,6.23
2023-03-14T00:06:04.612Z,7.13
2023-03-14T00:08:31.841Z,8.30
2023-03-14T00:11:01.335Z,8.03
2023-03-14T00:13:27.996Z,6.43
2023-03-14T00:15:57.191Z,8.23
2023-03-14T00:18:24.537Z,6.40
2023-03-14T00:20:51.172Z,7.00
2023-03-14T00:23:17.762Z,12.37
2023-03-14T00:25:44.818Z,8.87
2023-03-14T00:28:11.520Z,10.70
2023-03-14T00:30:38.839Z,11.27
2023-03-14T00:33:05.770Z,9.57
2023-03-14T00:35:32.336Z,6.00
2023-03-14T00:37:58.972Z,10.13
2023-03-14T00:40:25.599Z,6.30
2023-03-14T00:42:52.148Z,6.37
2023-03-14T00:45:18.752Z,6.00
2023-03-14T00:47:46.641Z,6.30
2023-03-14T00:50:14.911Z,6.07
2023-03-14T00:52:41.544Z,7.97
2023-03-14T00:55:08.503Z,8.30
2023-03-14T00:57:35.086Z,4.90
2023-03-14T01:00:01.828Z,6.00
2023-03-14T01:02:29.386Z,7.57
2023-03-14T01:04:55.971Z,3.87
2023-03-14T01:07:22.574Z,7.17
2023-03-14T01:09:52.752Z,4.00
2023-03-14T01:12:19.474Z,6.97
2023-03-14T01:14:46.818Z,5.83
2023-03-14T01:17:13.528Z,13.67
2023-03-14T01:19:40.153Z,7.40
2023-03-14T01:22:07.072Z,6.43
2023-03-14T01:24:36.388Z,7.73
2023-03-14T01:27:03.906Z,9.17
2023-03-14T01:29:30.608Z,9.17
2023-03-14T01:31:57.161Z,6.57
2023-03-14T01:34:23.834Z,7.13
2023-03-14T01:36:50.416Z,11.93
2023-03-14T01:39:17.011Z,12.53
2023-03-14T01:41:43.897Z,11.77
2023-03-14T01:44:13.094Z,7.77
2023-03-14T01:46:42.503Z,8.70
2023-03-14T01:49:24.064Z,9.60
2023-03-14T01:52:08.528Z,8.17
2023-03-14T01:54:49.169Z,8.97
2023-03-14T01:57:21.019Z,12.07
2023-03-14T01:59:53.759Z,12.60
2023-03-14T02:02:21.269Z,12.53
2023-03-14T02:04:47.913Z,10.20
2023-03-14T02:07:23.533Z,10.43
2023-03-14T02:09:51.166Z,9.00
2023-03-14T02:12:19.136Z,7.00
2023-03-14T02:14:49.903Z,8.80
2023-03-14T02:17:19.223Z,9.60
2023-03-14T02:20:09.911Z,5.83
2023-03-14T02:22:37.946Z,7.27
2023-03-14T02:25:14.647Z,6.87
2023-03-14T02:27:41.377Z,10.53
2023-03-14T02:30:17.940Z,11.73
2023-03-14T02:32:49.385Z,13.97
2023-03-14T02:35:39.278Z,10.57
2023-03-14T02:38:21.827Z,14.63
2023-03-14T02:40:48.754Z,12.20
2023-03-14T02:43:15.364Z,10.93
2023-03-14T02:45:45.324Z,8.27
2023-03-14T02:48:35.576Z,11.63
2023-03-14T02:51:02.725Z,10.60
2023-03-14T02:53:32.420Z,9.17
2023-03-14T02:55:59.360Z,7.10
2023-03-14T02:58:27.699Z,6.77
2023-03-14T03:00:54.705Z,6.77
2023-03-14T03:03:21.424Z,7.33
2023-03-14T03:05:53.241Z,9.77
2023-03-14T03:08:21.356Z,6.77
2023-03-14T03:10:48.524Z,5.33
2023-03-14T03:13:15.814Z,5.63
2023-03-14T03:15:42.527Z,5.87
2023-03-14T03:18:09.563Z,5.40
2023-03-14T03:20:36.657Z,7.50
2023-03-14T03:23:03.951Z,10.43
2023-03-14T03:25:31.086Z,6.00
2023-03-14T03:27:58.469Z,6.67
2023-03-14T03:30:25.053Z,6.70
2023-03-14T03:32:51.729Z,8.73
2023-03-14T03:35:18.552Z,7.13
2023-03-14T03:37:45.141Z,10.87
2023-03-14T03:40:12.565Z,7.80
2023-03-14T03:42:39.312Z,9.07
2023-03-14T03:45:06.390Z,7.37
2023-03-14T03:47:32.915Z,10.77
2023-03-14T03:49:59.419Z,8.40
2023-03-14T03:52:25.988Z,10.80
2023-03-14T03:54:52.483Z,8.53
2023-03-14T03:57:19.410Z,9.57
2023-03-14T03:59:45.920Z,5.00
2023-03-14T04:02:13.038Z,6.80
2023-03-14T04:04:39.912Z,8.83
2023-03-14T04:07:06.945Z,7.23
2023-03-14T04:09:33.604Z,8.80
2023-03-14T04:12:00.925Z,8.73
2023-03-14T04:14:27.486Z,8.07
2023-03-14T04:16:54.032Z,7.07
2023-03-14T04:19:22.204Z,8.40
2023-03-14T04:21:48.760Z,7.67
2023-03-14T04:24:15.925Z,4.57
2023-03-14T04:26:42.506Z,4.47
2023-03-14T04:29:09.089Z,4.23
2023-03-14T04:31:36.124Z,6.33
2023-03-14T04:34:02.681Z,3.47
2023-03-14T04:36:29.238Z,5.03
2023-03-14T04:38:55.749Z,5.90
2023-03-14T04:41:22.400Z,4.67
2023-03-14T04:43:48.923Z,2.23
2023-03-14T04:46:15.798Z,4.87
2023-03-14T04:48:42.883Z,5.17
2023-03-14T04:51:09.424Z,5.80
2023-03-14T04:53:36.790Z,5.93
2023-03-14T04:56:03.610Z,9.20
2023-03-14T04:58:30.485Z,6.23
2023-03-14T05:00:57.127Z,8.13
2023-03-14T05:03:23.645Z,7.90
2023-03-14T05:05:50.257Z,7.87
2023-03-14T05:08:16.854Z,6.87
2023-03-14T05:10:43.402Z,6.93
2023-03-14T05:13:09.943Z,3.50
2023-03-14T05:15:36.469Z,3.53
2023-03-14T05:18:03.174Z,2.03
2023-03-14T05:20:30.064Z,2.93
2023-03-14T05:22:56.695Z,2.63
2023-03-14T05:25:23.332Z,2.83
2023-03-14T05:27:49.869Z,1.73
2023-03-14T05:30:16.667Z,2.10
2023-03-14T05:32:43.300Z,1.13
2023-03-14T05:35:10.756Z,3.23
2023-03-14T05:37:37.399Z,1.70
2023-03-14T05:40:05.769Z,2.77
2023-03-14T05:42:32.278Z,2.43
2023-03-14T05:44:58.848Z,3.93
2023-03-14T05:47:25.869Z,5.10
2023-03-14T05:49:52.453Z,7.83
2023-03-14T05:52:19.197Z,12.00
2023-03-14T05:54:45.769Z,10.63
2023-03-14T05:57:12.713Z,8.27
2023-03-14T05:59:39.296Z,6.47
2023-03-14T06:02:06.130Z,5.13
2023-03-14T06:04:33.015Z,4.97
2023-03-14T06:06:59.600Z,4.40
2023-03-14T06:09:26.501Z,5.00
2023-03-14T06:11:53.024Z,6.37
2023-03-14T06:14:19.710Z,4.37
2023-03-14T06:16:46.342Z,4.87
2023-03-14T06:19:12.909Z,8.93
2023-03-14T06:21:39.459Z,5.17
2023-03-14T06:24:08.270Z,3.80
2023-03-14T06:26:34.900Z,6.43
2023-03-14T06:29:04.408Z,8.60
2023-03-14T06:31:34.587Z,3.43
2023-03-14T06:34:01.218Z,4.13
2023-03-14T06:36:29.977Z,4.50
2023-03-14T06:38:56.884Z,3.17
2023-03-14T06:41:24.832Z,2.37
2023-03-14T06:43:51.421Z,3.23
2023-03-14T06:46:18.052Z,1.97
2023-03-14T06:48:44.780Z,1.53
2023-03-14T06:51:11.365Z,1.37
2023-03-14T06:53:38.419Z,1.03
2023-03-14T06:56:05.332Z,1.00
2023-03-14T06:58:31.924Z,2.73
2023-03-14T07:00:59.472Z,2.33
2023-03-14T07:03:26.219Z,2.40
2023-03-14T07:05:53.459Z,2.03
2023-03-14T07:08:20.178Z,2.40
2023-03-14T07:10:46.752Z,2.53
2023-03-14T07:13:13.363Z,1.60
2023-03-14T07:15:40.186Z,2.40
2023-03-14T07:18:06.830Z,1.90
2023-03-14T07:20:33.426Z,3.63
2023-03-14T07:23:04.190Z,1.53
2023-03-14T07:25:30.806Z,1.53
2023-03-14T07:27:57.350Z,4.23
2023-03-14T07:30:23.898Z,1.50
2023-03-14T07:32:50.585Z,1.13
2023-03-14T07:35:17.361Z,0.73
2023-03-14T07:37:43.897Z,1.50
2023-03-14T07:40:12.732Z,0.87
2023-03-14T07:42:39.230Z,1.77
2023-03-14T07:45:07.867Z,5.03
2023-03-14T07:47:34.620Z,1.43
2023-03-14T07:50:01.208Z,1.50
2023-03-14T07:52:27.912Z,1.60
2023-03-14T07:54:54.457Z,1.20
2023-03-14T07:57:20.957Z,1.23
2023-03-14T07:59:47.500Z,0.80
2023-03-14T08:02:14.959Z,1.10
2023-03-14T08:04:41.831Z,2.80
2023-03-14T08:07:08.492Z,1.17
2023-03-14T08:09:35.127Z,3.47
2023-03-14T08:12:01.714Z,3.93
2023-03-14T08:14:30.244Z,11.63
2023-03-14T08:16:56.839Z,6.60
2023-03-14T08:19:23.568Z,5.83
2023-03-14T08:21:50.227Z,4.43
2023-03-14T08:24:16.809Z,1.83
2023-03-14T08:26:46.535Z,3.70
2023-03-14T08:29:13.905Z,3.67
2023-03-14T08:31:40.494Z,2.40
2023-03-14T08:34:08.189Z,6.10
2023-03-14T08:36:35.249Z,1.53
2023-03-14T08:39:01.979Z,1.97
2023-03-14T08:41:28.988Z,2.00
2023-03-14T08:43:55.576Z,3.10
2023-03-14T08:46:22.250Z,2.43
2023-03-14T08:48:48.848Z,2.43
2023-03-14T08:51:15.621Z,3.83
2023-03-14T08:53:44.277Z,2.00
2023-03-14T08:56:11.341Z,4.07
2023-03-14T08:58:40.656Z,2.77
2023-03-14T09:01:08.912Z,1.83
2023-03-14T09:03:36.286Z,1.00
2023-03-14T09:06:08.194Z,2.10
2023-03-14T09:08:37.215Z,1.93
2023-03-14T09:11:07.466Z,3.47
2023-03-14T09:13:34.046Z,2.03
2023-03-14T09:16:00.871Z,1.50
2023-03-14T09:18:27.412Z,1.90
2023-03-14T09:20:54.279Z,2.97
2023-03-14T09:23:20.788Z,11.47
2023-03-14T09:25:47.301Z,3.70
2023-03-14T09:28:14.116Z,3.83
2023-03-14T09:30:40.738Z,1.43
2023-03-14T09:33:07.289Z,1.97
2023-03-14T09:35:35.162Z,0.60
2023-03-14T09:38:01.726Z,1.03
2023-03-14T09:40:35.064Z,1.20
2023-03-14T09:43:01.745Z,1.87
2023-03-14T09:45:41.548Z,2.23
2023-03-14T09:48:20.202Z,1.23
2023-03-14T09:50:51.330Z,1.43
2023-03-14T09:53:25.302Z,1.50
2023-03-14T09:55:53.413Z,2.50
2023-03-14T09:58:25.372Z,2.30
2023-03-14T10:00:56.884Z,1.77
2023-03-14T10:03:42.891Z,4.00
2023-03-14T10:06:14.723Z,3.93
2023-03-14T10:08:42.923Z,3.83
2023-03-14T10:11:18.512Z,2.87
2023-03-14T10:13:50.973Z,3.20
2023-03-14T10:16:17.539Z,3.53
2023-03-14T10:18:47.518Z,3.60
2023-03-14T10:21:29.361Z,4.00
2023-03-14T10:24:07.925Z,2.40
2023-03-14T10:26:36.235Z,2.33
2023-03-14T10:29:13.777Z,3.93
2023-03-14T10:34:29.350Z,1.10
2023-03-14T10:36:59.233Z,3.87
2023-03-14T10:39:30.805Z,6.43
2023-03-14T10:42:31.161Z,2.17
2023-03-14T10:45:01.623Z,2.77
2023-03-14T10:47:32.976Z,2.70
2023-03-14T10:50:25.206Z,1.10
2023-03-14T10:53:03.131Z,3.53
2023-03-14T10:55:41.205Z,3.27
2023-03-14T10:58:24.154Z,1.97
2023-03-14T11:01:06.275Z,2.73
2023-03-14T11:03:36.631Z,2.67
2023-03-14T11:06:22.286Z,3.13
2023-03-14T11:09:05.482Z,2.63
2023-03-14T11:11:33.089Z,2.40
2023-03-14T11:14:21.097Z,4.10
2023-03-14T11:16:54.649Z,3.33
2023-03-14T11:19:41.124Z,3.20
2023-03-14T11:22:19.902Z,2.50
2023-03-14T11:24:57.191Z,1.80
2023-03-14T11:27:34.264Z,3.90
2023-03-14T11:30:18.896Z,4.93
2023-03-14T11:33:03.299Z,1.50
2023-03-14T11:35:43.327Z,3.43
2023-03-14T11:38:14.974Z,2.40
2023-03-14T11:40:42.495Z,2.30
2023-03-14T11:43:16.830Z,4.33
2023-03-14T11:45:44.827Z,2.40
2023-03-14T11:48:30.427Z,4.23
2023-03-14T11:51:00.425Z,7.53
2023-03-14T11:54:05.986Z,3.60
2023-03-14T11:56:40.033Z,5.37
2023-03-14T11:59:14.630Z,8.13
2023-03-14T12:01:53.301Z,5.97
2023-03-14T12:04:48.034Z,4.50
2023-03-14T12:07:22.029Z,4.57
2023-03-14T12:09:52.113Z,5.40
2023-03-14T12:12:25.608Z,4.30
2023-03-14T12:15:22.451Z,6.20
2023-03-14T12:17:55.476Z,2.80
2023-03-14T12:20:27.369Z,4.30
2023-03-14T12:23:05.062Z,9.57
2023-03-14T12:25:34.481Z,5.83
2023-03-14T12:28:00.990Z,4.33
2023-03-14T12:30:33.507Z,8.33
2023-03-14T12:33:18.509Z,5.17
2023-03-14T12:35:50.412Z,11.77
2023-03-14T12:38:30.894Z,6.23
2023-03-14T12:41:18.482Z,5.57
2023-03-14T12:43:45.139Z,11.70
2023-03-14T12:46:28.678Z,11.50
2023-03-14T12:49:08.650Z,12.10
2023-03-14T12:51:39.128Z,9.60
2023-03-14T12:54:41.180Z,17.17
2023-03-14T12:57:15.180Z,9.57
2023-03-14T12:59:52.131Z,9.80
2023-03-14T13:02:24.630Z,8.73
2023-03-14T13:05:03.127Z,17.40
2023-03-14T13:07:40.403Z,10.53
2023-03-14T13:13:04.175Z,10.20
2023-03-14T13:15:41.916Z,13.73
2023-03-14T13:18:18.151Z,10.83
2023-03-14T13:21:04.922Z,16.30
2023-03-14T13:23:37.630Z,14.53
2023-03-14T13:26:07.156Z,16.03
2023-03-14T13:28:36.200Z,13.13
2023-03-14T13:31:04.442Z,13.40
2023-03-14T13:33:32.603Z,17.73
2023-03-14T13:36:08.431Z,19.90
2023-03-14T13:38:37.333Z,16.80
2023-03-14T13:41:08.933Z,15.00
2023-03-14T13:43:44.474Z,19.33
2023-03-14T13:46:24.314Z,20.50
2023-03-14T13:48:58.654Z,17.73
2023-03-14T13:51:28.700Z,15.33
2023-03-14T13:53:56.662Z,13.00
2023-03-14T13:56:26.008Z,16.57
2023-03-14T13:58:52.765Z,25.00
2023-03-14T14:01:24.342Z,14.77
2023-03-14T14:03:54.125Z,12.57
2023-03-14T14:06:37.601Z,15.53
2023-03-14T14:09:39.326Z,20.03
2023-03-14T14:12:17.843Z,9.67
2023-03-14T14:14:47.689Z,13.63
2023-03-14T14:17:21.585Z,12.37
2023-03-14T14:19:49.182Z,11.63
2023-03-14T14:22:16.015Z,10.20
2023-03-14T14:24:42.929Z,9.17
2023-03-14T14:27:27.627Z,7.93
2023-03-14T14:30:05.249Z,8.87
2023-03-14T14:32:40.262Z,9.20
2023-03-14T14:35:08.545Z,9.43
2023-03-14T14:37:41.797Z,7.57
2023-03-14T14:40:17.125Z,6.17
2023-03-14T14:42:43.941Z,10.57
2023-03-14T14:45:17.321Z,8.67
2023-03-14T14:47:56.370Z,6.87
2023-03-14T14:50:37.586Z,11.43
2023-03-14T14:53:22.593Z,9.57
2023-03-14T14:55:52.786Z,9.27
2023-03-14T14:58:30.781Z,6.63
2023-03-14T15:01:00.625Z,9.40
2023-03-14T15:03:29.910Z,9.57
2023-03-14T15:05:56.685Z,7.93
2023-03-14T15:08:23.465Z,9.80
2023-03-14T15:10:50.044Z,10.37
2023-03-14T15:13:16.556Z,6.63
2023-03-14T15:15:44.436Z,9.00
2023-03-14T15:18:19.811Z,7.33
2023-03-14T15:20:47.770Z,7.93
2023-03-14T15:23:16.698Z,10.50
2023-03-14T15:25:54.877Z,6.33
2023-03-14T15:28:25.421Z,5.93
2023-03-14T15:30:57.637Z,7.87
2023-03-14T15:33:27.407Z,8.03
2023-03-14T15:35:54.109Z,5.80
2023-03-14T15:38:23.765Z,5.33
2023-03-14T15:40:51.407Z,5.67
2023-03-14T15:43:19.271Z,6.33
2023-03-14T15:45:46.310Z,9.00
2023-03-14T15:48:16.449Z,6.87
2023-03-14T15:50:43.738Z,9.87
2023-03-14T15:53:11.096Z,10.50
2023-03-14T15:55:37.638Z,8.03
2023-03-14T15:58:04.444Z,4.53
2023-03-14T16:00:31.755Z,5.63
2023-03-14T16:02:58.237Z,10.20
2023-03-14T16:05:24.745Z,7.30
2023-03-14T16:07:53.749Z,8.83
2023-03-14T16:10:20.372Z,5.50
2023-03-14T16:12:46.869Z,4.17
2023-03-14T16:15:13.361Z,5.47
2023-03-14T16:17:41.264Z,9.60
2023-03-14T16:20:09.417Z,6.50
2023-03-14T16:22:36.937Z,5.77
2023-03-14T16:25:05.335Z,6.43
2023-03-14T16:27:32.243Z,10.37
2023-03-14T16:30:03.061Z,7.70
2023-03-14T16:32:30.280Z,9.97
2023-03-14T16:34:56.989Z,4.23
2023-03-14T16:37:24.920Z,9.07
2023-03-14T16:45:24.747Z,5.87
2023-03-14T16:47:51.263Z,5.63
2023-03-14T16:50:17.792Z,8.93
2023-03-14T16:52:47.045Z,6.67
2023-03-14T16:55:13.716Z,11.03
2023-03-14T16:57:40.362Z,5.43
2023-03-14T17:00:10.742Z,8.33
2023-03-14T17:02:38.406Z,11.03
2023-03-14T17:05:05.273Z,10.90
2023-03-14T17:07:31.820Z,8.23
2023-03-14T17:09:58.288Z,8.70
2023-03-14T17:12:24.838Z,16.40
2023-03-14T17:14:51.406Z,10.87
2023-03-14T17:17:18.077Z,8.63
2023-03-14T17:19:44.700Z,11.93
2023-03-14T17:22:23.242Z,7.87
2023-03-14T17:24:50.739Z,6.40
2023-03-14T17:27:20.187Z,8.53
2023-03-14T17:29:47.820Z,7.30
2023-03-14T17:32:17.584Z,6.37
2023-03-14T17:34:44.188Z,6.33
2023-03-14T17:37:10.762Z,7.70
2023-03-14T17:39:38.265Z,9.77
2023-03-14T17:42:05.714Z,12.30
2023-03-14T17:44:35.037Z,11.27
2023-03-14T17:47:02.221Z,9.17
2023-03-14T17:49:28.845Z,9.60
2023-03-14T17:51:57.852Z,9.33
2023-03-14T17:54:24.350Z,6.87
2023-03-14T17:56:50.910Z,9.90
2023-03-14T17:59:17.694Z,7.67
2023-03-14T18:01:44.325Z,8.37
2023-03-14T18:04:11.363Z,6.80
2023-03-14T18:06:37.949Z,10.03
2023-03-14T18:09:06.131Z,8.70
2023-03-14T18:11:33.046Z,12.53
2023-03-14T18:14:01.735Z,11.93
2023-03-14T18:16:28.371Z,12.07
2023-03-14T18:18:56.977Z,11.10
2023-03-14T18:21:23.795Z,15.67
2023-03-14T18:23:50.385Z,9.67
2023-03-14T18:26:17.408Z,13.47
2023-03-14T18:28:44.065Z,11.10
2023-03-14T18:31:12.712Z,10.63
2023-03-14T18:33:42.005Z,7.67
2023-03-14T18:36:10.542Z,12.70
2023-03-14T18:38:43.206Z,11.20
2023-03-14T18:41:12.765Z,7.83
2023-03-14T18:43:39.666Z,8.53
2023-03-14T18:46:07.642Z,9.80
2023-03-14T18:48:34.196Z,8.50
2023-03-14T18:51:01.140Z,7.10
2023-03-14T18:53:33.088Z,11.83
2023-03-14T18:56:00.850Z,8.87
2023-03-14T18:58:28.471Z,16.23
2023-03-14T19:00:59.880Z,19.33
2023-03-14T19:03:26.492Z,11.07
2023-03-14T19:05:58.119Z,10.23
2023-03-14T19:08:26.080Z,9.17
2023-03-14T19:10:55.526Z,9.50
2023-03-14T19:13:23.297Z,10.70
2023-03-14T19:15:49.839Z,9.20
2023-03-14T19:18:16.584Z,9.93
2023-03-14T19:20:45.027Z,7.00
2023-03-14T19:23:14.448Z,6.57
2023-03-14T19:25:45.115Z,8.40
2023-03-14T19:28:16.024Z,11.77
2023-03-14T19:30:42.592Z,22.33
2023-03-14T19:33:12.286Z,20.17
2023-03-14T19:35:38.864Z,21.47
2023-03-14T19:38:05.448Z,14.70
2023-03-14T19:40:37.273Z,13.17
2023-03-14T19:43:06.403Z,22.00
2023-03-14T19:45:36.637Z,17.13
2023-03-14T19:48:05.817Z,15.87
2023-03-14T19:50:35.484Z,19.60
2023-03-14T19:53:04.512Z,13.43
2023-03-14T19:55:34.828Z,18.47
2023-03-14T19:58:01.720Z,16.97
2023-03-14T20:00:28.694Z,14.30
2023-03-14T20:02:55.973Z,17.47
2023-03-14T20:05:24.515Z,10.63
2023-03-14T20:07:51.965Z,14.83
2023-03-14T20:10:24.858Z,10.93
2023-03-14T20:12:51.783Z,9.17
2023-03-14T20:15:24.376Z,12.53
2023-03-14T20:17:51.670Z,9.40
2023-03-14T20:20:20.492Z,12.30
2023-03-14T20:22:48.109Z,13.90
2023-03-14T20:25:20.299Z,11.93
2023-03-14T20:27:51.950Z,9.00
2023-03-14T20:30:22.738Z,8.83
2023-03-14T20:32:50.888Z,10.00
2023-03-14T20:35:23.710Z,7.43
2023-03-14T20:37:56.105Z,8.83
2023-03-14T20:40:24.129Z,9.53
2023-03-14T20:42:51.932Z,10.13
2023-03-14T20:45:18.788Z,11.40
2023-03-14T20:47:47.784Z,9.80
2023-03-14T20:50:14.337Z,7.03
2023-03-14T20:52:41.923Z,12.77
2023-03-14T20:55:08.996Z,7.33
2023-03-14T20:57:35.580Z,12.97
2023-03-14T21:00:03.314Z,10.90
2023-03-14T21:02:29.884Z,6.97
2023-03-14T21:04:58.131Z,10.00
2023-03-14T21:07:24.701Z,11.73
2023-03-14T21:09:51.237Z,6.97
2023-03-14T21:12:17.740Z,7.20
2023-03-14T21:14:44.370Z,9.90
2023-03-14T21:17:10.867Z,7.73
2023-03-14T21:19:37.373Z,7.27
2023-03-14T21:22:05.990Z,4.57
2023-03-14T21:24:34.529Z,8.47
2023-03-14T21:27:01.217Z,6.87
2023-03-14T21:29:27.896Z,9.70
2023-03-14T21:31:54.469Z,10.33
2023-03-14T21:34:21.169Z,7.63
2023-03-14T21:36:48.917Z,8.40
2023-03-14T21:39:15.899Z,9.10
2023-03-14T21:41:42.550Z,8.10
2023-03-14T21:44:09.302Z,9.77
2023-03-14T21:46:36.613Z,12.73
2023-03-14T21:49:04.142Z,11.93
2023-03-14T21:51:35.782Z,13.50
2023-03-14T21:54:02.327Z,9.50
2023-03-14T21:56:28.866Z,8.67
2023-03-14T21:59:00.051Z,11.57
2023-03-14T22:01:26.654Z,9.03
2023-03-14T22:03:53.682Z,7.43
2023-03-14T22:06:20.794Z,6.23
2023-03-14T22:08:47.450Z,11.33
2023-03-14T22:11:14.367Z,7.30
2023-03-14T22:13:40.934Z,8.73
2023-03-14T22:16:08.374Z,10.20
2023-03-14T22:18:36.542Z,13.53
2023-03-14T22:21:03.111Z,7.13
2023-03-14T22:23:29.696Z,7.80
2023-03-14T22:25:56.360Z,8.73
2023-03-14T22:28:22.944Z,5.87
2023-03-14T22:30:51.468Z,10.93
2023-03-14T22:33:22.030Z,8.67
2023-03-14T22:35:53.532Z,7.60
2023-03-14T22:38:20.332Z,11.37
2023-03-14T22:40:47.210Z,9.43
2023-03-14T22:43:13.789Z,9.23
2023-03-14T22:45:40.441Z,10.13
2023-03-14T22:48:08.038Z,10.20
2023-03-14T22:50:35.005Z,6.63
2023-03-14T22:53:03.766Z,11.57
2023-03-14T22:55:30.658Z,6.90
2023-03-14T22:57:59.079Z,12.10
2023-03-14T23:00:27.106Z,9.77
2023-03-14T23:02:59.895Z,12.53
2023-03-14T23:05:26.502Z,10.03
2023-03-14T23:07:54.058Z,11.07
2023-03-14T23:10:20.854Z,11.07
2023-03-14T23:12:47.454Z,11.07
2023-03-14T23:15:18.013Z,13.43
2023-03-14T23:17:50.712Z,11.47
2023-03-14T23:20:21.145Z,14.23
2023-03-14T23:22:53.366Z,10.07
2023-03-14T23:25:20.834Z,14.17
2023-03-14T23:27:51.298Z,15.20
2023-03-14T23:30:18.033Z,9.27
2023-03-14T23:32:45.069Z,12.40
2023-03-14T23:35:12.802Z,11.37
2023-03-14T23:37:40.090Z,14.80
2023-03-14T23:40:08.149Z,12.80
2023-03-14T23:42:36.044Z,10.70
2023-03-14T23:45:05.110Z,13.33
2023-03-14T23:47:33.701Z,14.90
2023-03-14T23:50:00.296Z,14.37
2023-03-14T23:52:30.457Z,17.40
2023-03-14T23:54:57.027Z,12.03
2023-03-14T23:57:23.598Z,8.40
2023-03-14T23:59:50.172Z,13.87
